Weather at Finley Airport

Public forecast

Using degrees Celsius for public forecast. Weather courtesy of forecast.io.

Closest aviation weather report (METAR) to Finley Airport

Closest report is Wangaratta Airport, 58.1 nm (107.6 km) SE. Retrieved 2020/10/25 05:00 UTC (18 minutes ago):

YWGT 250500Z AUTO 16009KT 9999 // SCT065 20/07 Q1013

Closest aviation forecast (TAF) to Finley Airport

Closest forecast is Wangaratta Airport, 58.1 nm (107.6 km) SE. Retrieved 2020-10-25 02:03 UTC (3 hours ago):

TAF TAF YWGT 250043Z 2502/2514 17010KT CAVOK